Terminal Aerodrome Forecast
Issued by NWS

Current Version | Previous Version | Text Only | Print | Product List | Glossary On
Versions: 1 2 3 4 5 6 7 8 9 10 11 12 13 14 15 16 17 18 19 20 21 22 23 24 25 26 27 28 29 30 31 32 33 34 35 36 37 38
000
FTUS43 KLOT 031619 AAB
TAFMDW
TAF AMD
KMDW 031619Z 0316/0412 25010KT P6SM SCT050 SCT250
     FM040000 04009KT P6SM VCTS SCT015 SCT050CB BKN250
     FM040400 06005KT 6SM BR SCT020 BKN250=

USA.gov is the U.S. government's official web portal to all federal, state and local government web resources and services.